createdAt,value
2023-03-10T00:00:39.550Z,99017.66
2023-03-10T00:03:07.146Z,99016.06
2023-03-10T00:05:34.424Z,99016.63
2023-03-10T00:08:00.949Z,99004.69
2023-03-10T00:10:27.459Z,99007.88
2023-03-10T00:12:53.902Z,99013.16
2023-03-10T00:15:20.456Z,99008.16
2023-03-10T00:17:50.147Z,99018.44
2023-03-10T00:20:16.818Z,99000.75
2023-03-10T00:22:43.605Z,99002.06
2023-03-10T00:25:10.889Z,99015.81
2023-03-10T00:27:37.462Z,99022.94
2023-03-10T00:30:04.999Z,99023.72
2023-03-10T00:32:31.568Z,99014.75
2023-03-10T00:34:58.130Z,99010.56
2023-03-10T00:37:24.539Z,99001.81
2023-03-10T00:39:52.426Z,99008.16
2023-03-10T00:42:19.555Z,99019.53
2023-03-10T00:44:46.612Z,99011.88
2023-03-10T00:47:13.135Z,98998.41
2023-03-10T00:49:39.533Z,99001.53
2023-03-10T00:52:06.136Z,98999.44
2023-03-10T00:54:32.646Z,99013.44
2023-03-10T00:56:59.127Z,99013.19
2023-03-10T00:59:25.601Z,99008.69
2023-03-10T01:01:52.217Z,99012.16
2023-03-10T01:04:19.939Z,99015.84
2023-03-10T01:06:47.671Z,98998.13
2023-03-10T01:09:15.088Z,98999.19
2023-03-10T01:11:41.963Z,99003.94
2023-03-10T01:14:12.524Z,98994.44
2023-03-10T01:16:39.329Z,98989.16
2023-03-10T01:19:06.548Z,99003.41
2023-03-10T01:21:35.872Z,98991.47
2023-03-10T01:24:03.181Z,98990.75
2023-03-10T01:26:30.492Z,98992.06
2023-03-10T01:28:57.427Z,98995.25
2023-03-10T01:31:24.092Z,98988.09
2023-03-10T01:33:50.666Z,98981.78
2023-03-10T01:36:23.203Z,98981.78
2023-03-10T01:38:50.177Z,98979.66
2023-03-10T01:41:17.577Z,98970.44
2023-03-10T01:43:50.531Z,98977.31
2023-03-10T01:46:40.065Z,98972.81
2023-03-10T01:49:28.321Z,98963.84
2023-03-10T01:52:26.248Z,98960.13
2023-03-10T01:55:04.328Z,98960.66
2023-03-10T01:57:36.471Z,98963.03
2023-03-10T02:00:11.695Z,98958.56
2023-03-10T02:02:46.017Z,98957.75
2023-03-10T02:05:14.665Z,98952.47
2023-03-10T02:07:43.046Z,98951.16
2023-03-10T02:10:12.923Z,98948.50
2023-03-10T02:12:39.507Z,98941.88
2023-03-10T02:15:07.443Z,98947.97
2023-03-10T02:17:34.485Z,98944.28
2023-03-10T02:20:16.479Z,98946.09
2023-03-10T02:22:43.059Z,98942.13
2023-03-10T02:25:30.666Z,98947.97
2023-03-10T02:27:57.736Z,98938.16
2023-03-10T02:30:32.071Z,98935.53
2023-03-10T02:33:02.765Z,98933.69
2023-03-10T02:35:29.422Z,98929.47
2023-03-10T02:37:55.948Z,98928.16
2023-03-10T02:40:33.651Z,98915.97
2023-03-10T02:43:03.459Z,98918.63
2023-03-10T02:45:37.307Z,98902.00
2023-03-10T02:48:04.047Z,98909.91
2023-03-10T02:50:36.704Z,98902.22
2023-03-10T02:53:17.070Z,98908.59
2023-03-10T02:55:43.701Z,98907.25
2023-03-10T02:58:10.222Z,98903.28
2023-03-10T03:00:38.950Z,98907.75
2023-03-10T03:03:06.718Z,98903.28
2023-03-10T03:05:33.967Z,98911.75
2023-03-10T03:08:00.692Z,98908.06
2023-03-10T03:10:27.651Z,98916.53
2023-03-10T03:12:56.255Z,98904.34
2023-03-10T03:15:23.852Z,98900.91
2023-03-10T03:17:50.841Z,98891.94
2023-03-10T03:20:17.675Z,98895.38
2023-03-10T03:22:45.559Z,98889.81
2023-03-10T03:25:15.559Z,98894.31
2023-03-10T03:27:43.134Z,98889.00
2023-03-10T03:30:14.407Z,98885.06
2023-03-10T03:32:41.187Z,98893.53
2023-03-10T03:35:14.445Z,98886.38
2023-03-10T03:37:40.842Z,98886.38
2023-03-10T03:40:13.782Z,98877.66
2023-03-10T03:42:45.579Z,98884.81
2023-03-10T03:45:14.718Z,98890.34
2023-03-10T03:47:41.272Z,98890.34
2023-03-10T03:50:10.385Z,98912.78
2023-03-10T03:52:37.155Z,98909.66
2023-03-10T03:55:04.287Z,98905.91
2023-03-10T03:57:31.169Z,98903.81
2023-03-10T03:59:57.623Z,98905.91
2023-03-10T04:02:24.319Z,98902.47
2023-03-10T04:04:53.439Z,98905.91
2023-03-10T04:07:19.913Z,98885.84
2023-03-10T04:09:46.436Z,98875.28
2023-03-10T04:12:12.923Z,98890.34
2023-03-10T04:14:39.414Z,98895.34
2023-03-10T04:17:06.145Z,98891.38
2023-03-10T04:19:32.658Z,98892.44
2023-03-10T04:21:59.150Z,98899.03
2023-03-10T04:24:25.712Z,98900.09
2023-03-10T04:26:52.284Z,98888.75
2023-03-10T04:29:18.833Z,98901.16
2023-03-10T04:31:53.069Z,98908.28
2023-03-10T04:34:29.311Z,98901.41
2023-03-10T04:36:55.761Z,98902.47
2023-03-10T04:39:22.253Z,98892.94
2023-03-10T04:41:48.666Z,98900.59
2023-03-10T04:44:29.788Z,98908.00
2023-03-10T04:46:57.229Z,98901.94
2023-03-10T04:49:23.643Z,98895.31
2023-03-10T04:51:50.069Z,98898.75
2023-03-10T04:54:16.549Z,98892.38
2023-03-10T04:56:42.985Z,98885.53
2023-03-10T04:59:09.404Z,98884.72
2023-03-10T05:01:35.799Z,98878.94
2023-03-10T05:04:04.118Z,98876.53
2023-03-10T05:06:31.271Z,98873.09
2023-03-10T05:08:58.512Z,98868.09
2023-03-10T05:11:25.115Z,98876.78
2023-03-10T05:13:51.619Z,98872.31
2023-03-10T05:16:21.222Z,98885.78
2023-03-10T05:18:48.266Z,98891.88
2023-03-10T05:21:14.956Z,98896.09
2023-03-10T05:23:41.597Z,98900.56
2023-03-10T05:26:12.027Z,98903.22
2023-03-10T05:28:39.268Z,98900.03
2023-03-10T05:31:16.096Z,98899.47
2023-03-10T05:33:43.288Z,98893.94
2023-03-10T05:36:12.139Z,98898.44
2023-03-10T05:38:38.917Z,98894.19
2023-03-10T05:41:10.483Z,98899.47
2023-03-10T05:43:38.322Z,98896.28
2023-03-10T05:46:05.899Z,98888.09
2023-03-10T05:48:32.578Z,98889.69
2023-03-10T05:51:03.296Z,98885.47
2023-03-10T05:53:30.837Z,98891.56
2023-03-10T05:55:57.836Z,98894.75
2023-03-10T05:58:26.257Z,98891.28
2023-03-10T06:00:53.360Z,98885.22
2023-03-10T06:03:20.143Z,98884.41
2023-03-10T06:05:46.665Z,98886.53
2023-03-10T06:08:13.154Z,98893.69
2023-03-10T06:10:39.731Z,98896.56
2023-03-10T06:13:06.368Z,98895.78
2023-03-10T06:15:32.899Z,98884.69
2023-03-10T06:17:59.530Z,98891.06
2023-03-10T06:20:26.277Z,98902.66
2023-03-10T06:22:53.401Z,98900.53
2023-03-10T06:25:20.596Z,98889.97
2023-03-10T06:27:47.666Z,98883.63
2023-03-10T06:30:15.145Z,98888.69
2023-03-10T06:32:41.958Z,98895.56
2023-03-10T06:35:12.209Z,98900.03
2023-03-10T06:37:38.632Z,98897.94
2023-03-10T06:40:08.055Z,98892.66
2023-03-10T06:42:34.567Z,98888.94
2023-03-10T06:45:01.021Z,98890.28
2023-03-10T06:47:27.447Z,98894.00
2023-03-10T06:49:54.848Z,98896.38
2023-03-10T06:52:21.475Z,98889.50
2023-03-10T06:54:47.991Z,98896.91
2023-03-10T06:57:14.502Z,98892.13
2023-03-10T06:59:40.907Z,98893.47
2023-03-10T07:02:09.653Z,98891.31
2023-03-10T07:04:36.214Z,98895.56
2023-03-10T07:07:02.695Z,98896.09
2023-03-10T07:09:29.228Z,98894.53
2023-03-10T07:11:55.675Z,98885.56
2023-03-10T07:14:22.092Z,98886.34
2023-03-10T07:16:48.756Z,98887.41
2023-03-10T07:19:15.356Z,98877.63
2023-03-10T07:21:41.868Z,98889.00
2023-03-10T07:24:08.386Z,98894.03
2023-03-10T07:26:35.147Z,98889.78
2023-03-10T07:29:02.576Z,98898.50
2023-03-10T07:31:29.256Z,98892.44
2023-03-10T07:33:55.888Z,98892.69
2023-03-10T07:36:22.578Z,98893.22
2023-03-10T07:38:49.115Z,98908.03
2023-03-10T07:41:19.475Z,98905.09
2023-03-10T07:43:46.001Z,98905.41
2023-03-10T07:46:15.357Z,98920.22
2023-03-10T07:48:41.992Z,98924.97
2023-03-10T07:51:09.178Z,98915.97
2023-03-10T07:53:36.201Z,98909.91
2023-03-10T07:56:08.465Z,98917.56
2023-03-10T07:58:35.633Z,98924.97
2023-03-10T08:01:02.961Z,98925.78
2023-03-10T08:03:30.037Z,98926.00
2023-03-10T08:05:57.210Z,98925.78
2023-03-10T08:08:23.653Z,98930.78
2023-03-10T08:10:50.377Z,98928.97
2023-03-10T08:13:16.855Z,98931.06
2023-03-10T08:15:43.464Z,98923.91
2023-03-10T08:18:10.030Z,98924.97
2023-03-10T08:20:36.912Z,98928.16
2023-03-10T08:23:04.177Z,98932.38
2023-03-10T08:25:31.215Z,98932.66
2023-03-10T08:27:57.857Z,98933.69
2023-03-10T08:30:24.273Z,98933.72
2023-03-10T08:32:50.836Z,98936.91
2023-03-10T08:35:17.566Z,98934.00
2023-03-10T08:37:44.144Z,98941.41
2023-03-10T08:40:12.844Z,98938.25
2023-03-10T08:42:39.325Z,98941.69
2023-03-10T08:45:08.713Z,98939.81
2023-03-10T08:47:35.498Z,98940.63
2023-03-10T08:50:02.173Z,98946.44
2023-03-10T08:52:28.609Z,98940.38
2023-03-10T08:54:55.132Z,98948.31
2023-03-10T08:57:22.114Z,98951.75
2023-03-10T08:59:48.592Z,98956.00
2023-03-10T09:02:15.695Z,98955.19
2023-03-10T09:04:42.772Z,98954.66
2023-03-10T09:07:09.671Z,98962.59
2023-03-10T09:09:36.335Z,98956.00
2023-03-10T09:12:03.826Z,98957.06
2023-03-10T09:14:30.620Z,98959.44
2023-03-10T09:16:57.226Z,98961.56
2023-03-10T09:19:24.061Z,98964.22
2023-03-10T09:21:50.688Z,98956.00
2023-03-10T09:24:18.060Z,98962.09
2023-03-10T09:26:44.905Z,98961.31
2023-03-10T09:29:12.105Z,98965.25
2023-03-10T09:31:39.655Z,98970.31
2023-03-10T09:34:08.454Z,98971.38
2023-03-10T09:36:35.646Z,98970.31
2023-03-10T09:39:02.480Z,98974.53
2023-03-10T09:41:52.858Z,98973.50
2023-03-10T09:44:24.160Z,98976.66
2023-03-10T09:47:21.838Z,98974.28
2023-03-10T09:50:14.748Z,98972.69
2023-03-10T09:52:48.939Z,98982.47
2023-03-10T09:55:21.645Z,98982.72
2023-03-10T09:57:50.920Z,98979.03
2023-03-10T10:00:44.853Z,98979.28
2023-03-10T10:03:20.797Z,98978.22
2023-03-10T10:05:50.230Z,98985.91
2023-03-10T10:08:24.826Z,98998.31
2023-03-10T10:10:55.412Z,98992.78
2023-03-10T10:13:25.182Z,98998.59
2023-03-10T10:16:21.276Z,99001.50
2023-03-10T10:19:02.144Z,99002.56
2023-03-10T10:21:42.868Z,99006.53
2023-03-10T10:24:10.316Z,99004.41
2023-03-10T10:26:37.167Z,99008.13
2023-03-10T10:29:24.060Z,99013.16
2023-03-10T10:32:13.748Z,99011.28
2023-03-10T10:34:45.729Z,99019.00
2023-03-10T10:37:42.761Z,99004.97
2023-03-10T10:40:28.041Z,99017.13
2023-03-10T10:42:56.829Z,99011.84
2023-03-10T10:45:25.397Z,99019.00
2023-03-10T10:47:53.027Z,99020.59
2023-03-10T10:50:19.852Z,99018.75
2023-03-10T10:52:50.038Z,99023.25
2023-03-10T10:55:30.413Z,99029.59
2023-03-10T10:58:02.566Z,99026.44
2023-03-10T11:00:33.652Z,99034.13
2023-03-10T11:03:00.686Z,99035.44
2023-03-10T11:05:38.765Z,99030.94
2023-03-10T11:08:29.427Z,99036.53
2023-03-10T11:11:06.755Z,99043.16
2023-03-10T11:13:43.895Z,99036.00
2023-03-10T11:16:22.795Z,99037.31
2023-03-10T11:18:58.687Z,99040.22
2023-03-10T11:21:32.114Z,99040.22
2023-03-10T11:23:58.633Z,99036.78
2023-03-10T11:26:44.145Z,99024.09
2023-03-10T11:29:21.494Z,99030.47
2023-03-10T11:32:06.863Z,99024.34
2023-03-10T11:34:40.564Z,99031.47
2023-03-10T11:37:30.671Z,99038.09
2023-03-10T11:40:07.663Z,99039.94
2023-03-10T11:43:01.414Z,99030.94
2023-03-10T11:45:48.572Z,99028.31
2023-03-10T11:48:33.571Z,99012.94
2023-03-10T11:51:03.827Z,99010.81
2023-03-10T11:53:50.613Z,99003.69
2023-03-10T11:56:20.755Z,98998.91
2023-03-10T11:59:08.831Z,99006.34
2023-03-10T12:01:51.005Z,99015.31
2023-03-10T12:04:25.192Z,99008.19
2023-03-10T12:07:08.520Z,99003.97
2023-03-10T12:09:46.539Z,99010.88
2023-03-10T12:12:17.056Z,99020.13
2023-03-10T12:14:45.407Z,99026.50
2023-03-10T12:17:14.486Z,99027.00
2023-03-10T12:20:23.324Z,99029.41
2023-03-10T12:22:55.208Z,99037.34
2023-03-10T12:25:32.636Z,99036.28
2023-03-10T12:28:17.263Z,99036.81
2023-03-10T12:31:03.576Z,99047.13
2023-03-10T12:33:42.442Z,99032.56
2023-03-10T12:36:31.878Z,99025.69
2023-03-10T12:39:30.241Z,99022.28
2023-03-10T12:42:02.529Z,99037.34
2023-03-10T12:44:36.798Z,99025.94
2023-03-10T12:47:09.440Z,99013.78
2023-03-10T12:49:41.886Z,99002.94
2023-03-10T12:52:35.782Z,99002.41
2023-03-10T12:55:21.078Z,98997.66
2023-03-10T12:58:03.451Z,99010.09
2023-03-10T13:00:41.116Z,99017.75
2023-03-10T13:03:10.630Z,99021.47
2023-03-10T13:05:42.844Z,99027.78
2023-03-10T13:08:17.811Z,99030.69
2023-03-10T13:10:45.163Z,99032.00
2023-03-10T13:13:17.269Z,99032.53
2023-03-10T13:15:43.787Z,99041.22
2023-03-10T13:18:19.272Z,99049.13
2023-03-10T13:20:46.612Z,99055.19
2023-03-10T13:23:32.564Z,99051.47
2023-03-10T13:26:01.491Z,99055.44
2023-03-10T13:28:31.074Z,99071.25
2023-03-10T13:31:14.551Z,99076.25
2023-03-10T13:33:52.316Z,99093.69
2023-03-10T13:36:34.548Z,99103.16
2023-03-10T13:39:04.621Z,99108.44
2023-03-10T13:41:37.200Z,99106.84
2023-03-10T13:44:03.914Z,99122.66
2023-03-10T13:46:33.096Z,99117.84
2023-03-10T13:49:06.401Z,99139.50
2023-03-10T13:51:36.476Z,99165.84
2023-03-10T13:54:27.619Z,99180.13
2023-03-10T13:56:58.894Z,99192.00
2023-03-10T13:59:31.219Z,99208.84
2023-03-10T14:02:01.784Z,99224.91
2023-03-10T14:04:49.039Z,99228.25
2023-03-10T14:07:24.492Z,99237.66
2023-03-10T14:10:06.176Z,99254.59
2023-03-10T14:12:35.585Z,99261.91
2023-03-10T14:15:14.164Z,99282.25
2023-03-10T14:17:42.717Z,99284.81
2023-03-10T14:20:13.357Z,99303.44
2023-03-10T14:22:43.144Z,99321.53
2023-03-10T14:25:17.136Z,99342.34
2023-03-10T14:27:52.589Z,99348.50
2023-03-10T14:30:24.063Z,99366.31
2023-03-10T14:32:51.284Z,99382.00
2023-03-10T14:35:20.299Z,99395.91
2023-03-10T14:37:51.175Z,99417.94
2023-03-10T14:40:19.211Z,99430.78
2023-03-10T14:42:47.539Z,99447.91
2023-03-10T14:45:27.756Z,99454.19
2023-03-10T14:47:56.426Z,99455.25
2023-03-10T14:50:24.722Z,99458.34
2023-03-10T14:52:51.208Z,99492.28
2023-03-10T14:55:17.796Z,99500.34
2023-03-10T14:57:46.538Z,99492.81
2023-03-10T15:00:19.494Z,99512.41
2023-03-10T15:02:50.706Z,99516.31
2023-03-10T15:05:20.039Z,99533.16
2023-03-10T15:07:48.702Z,99551.84
2023-03-10T15:10:17.921Z,99568.94
2023-03-10T15:12:44.782Z,99572.00
2023-03-10T15:15:20.610Z,99566.41
2023-03-10T15:17:47.645Z,99578.41
2023-03-10T15:20:16.704Z,99603.38
2023-03-10T15:22:45.230Z,99595.69
2023-03-10T15:25:12.447Z,99617.22
2023-03-10T15:27:39.040Z,99627.53
2023-03-10T15:30:07.061Z,99656.25
2023-03-10T15:32:33.607Z,99654.88
2023-03-10T15:35:00.169Z,99665.09
2023-03-10T15:37:26.613Z,99695.06
2023-03-10T15:39:53.295Z,99682.50
2023-03-10T15:42:19.782Z,99687.16
2023-03-10T15:44:49.334Z,99709.03
2023-03-10T15:47:15.832Z,99721.41
2023-03-10T15:49:42.308Z,99728.03
2023-03-10T15:52:08.820Z,99744.09
2023-03-10T15:54:35.296Z,99768.81
2023-03-10T15:57:01.896Z,99780.94
2023-03-10T15:59:28.410Z,99780.72
2023-03-10T16:01:54.976Z,99790.91
2023-03-10T16:04:21.572Z,99797.19
2023-03-10T16:06:48.062Z,99821.69
2023-03-10T16:09:15.072Z,99824.31
2023-03-10T16:11:41.630Z,99843.31
2023-03-10T16:14:08.157Z,99862.34
2023-03-10T16:16:34.619Z,99881.38
2023-03-10T16:19:01.061Z,99871.44
2023-03-10T16:21:28.048Z,99869.59
2023-03-10T16:23:54.492Z,99874.25
2023-03-10T16:26:23.374Z,99894.91
2023-03-10T16:28:55.376Z,99916.78
2023-03-10T16:31:26.222Z,99933.63
2023-03-10T16:33:53.530Z,99948.97
2023-03-10T16:36:23.344Z,99965.34
2023-03-10T16:38:50.656Z,99967.41
2023-03-10T16:41:17.786Z,99985.03
2023-03-10T16:43:44.460Z,99991.75
2023-03-10T16:46:12.372Z,99969.91
2023-03-10T16:48:42.329Z,99987.50
2023-03-10T16:51:22.943Z,99997.03
2023-03-10T16:53:50.094Z,100012.63
2023-03-10T16:56:16.900Z,100014.81
2023-03-10T16:58:43.741Z,100016.81
2023-03-10T17:01:10.263Z,100025.88
2023-03-10T17:03:39.905Z,100040.00
2023-03-10T17:06:09.277Z,100036.94
2023-03-10T17:08:36.692Z,100036.16
2023-03-10T17:11:03.458Z,100045.06
2023-03-10T17:13:30.750Z,100048.50
2023-03-10T17:15:57.268Z,100061.69
2023-03-10T17:18:23.775Z,100058.84
2023-03-10T17:20:50.346Z,100063.28
2023-03-10T17:23:16.983Z,100075.88
2023-03-10T17:25:44.706Z,100093.53
2023-03-10T17:28:11.350Z,100106.69
2023-03-10T17:30:41.031Z,100119.88
2023-03-10T17:33:07.654Z,100124.91
2023-03-10T17:35:38.233Z,100140.53
2023-03-10T17:38:04.671Z,100145.97
2023-03-10T17:40:31.366Z,100148.44
2023-03-10T17:42:59.939Z,100153.69
2023-03-10T17:45:34.886Z,100164.22
2023-03-10T17:48:01.410Z,100155.31
2023-03-10T17:50:27.928Z,100174.53
2023-03-10T17:52:54.433Z,100177.41
2023-03-10T17:55:21.140Z,100188.50
2023-03-10T17:57:47.666Z,100202.94
2023-03-10T18:00:14.872Z,100223.00
2023-03-10T18:02:41.687Z,100229.09
2023-03-10T18:05:08.648Z,100233.53
2023-03-10T18:07:35.171Z,100239.41
2023-03-10T18:10:01.797Z,100251.97
2023-03-10T18:12:28.231Z,100258.06
2023-03-10T18:14:54.696Z,100255.22
2023-03-10T18:17:21.248Z,100268.38
2023-03-10T18:19:50.824Z,100274.66
2023-03-10T18:22:17.246Z,100287.63
2023-03-10T18:24:43.800Z,100285.59
2023-03-10T18:27:10.615Z,100299.38
2023-03-10T18:29:37.124Z,100307.28
2023-03-10T18:32:03.832Z,100309.13
2023-03-10T18:34:30.287Z,100320.44
2023-03-10T18:36:56.857Z,100331.00
2023-03-10T18:39:24.423Z,100339.72
2023-03-10T18:41:54.234Z,100335.47
2023-03-10T18:44:20.742Z,100344.78
2023-03-10T18:46:47.365Z,100350.25
2023-03-10T18:49:13.877Z,100350.25
2023-03-10T18:51:40.476Z,100337.88
2023-03-10T18:54:07.128Z,100347.22
2023-03-10T18:56:33.822Z,100354.53
2023-03-10T18:59:00.434Z,100360.84
2023-03-10T19:01:27.184Z,100364.66
2023-03-10T19:03:53.857Z,100363.06
2023-03-10T19:06:20.463Z,100367.13
2023-03-10T19:08:47.131Z,100371.78
2023-03-10T19:11:14.875Z,100368.13
2023-03-10T19:13:44.162Z,100375.63
2023-03-10T19:16:11.073Z,100379.09
2023-03-10T19:18:37.617Z,100394.91
2023-03-10T19:21:04.923Z,100395.91
2023-03-10T19:23:33.896Z,100402.78
2023-03-10T19:26:00.534Z,100414.34
2023-03-10T19:28:27.546Z,100417.78
2023-03-10T19:30:54.084Z,100435.44
2023-03-10T19:33:20.671Z,100446.19
2023-03-10T19:35:47.143Z,100453.88
2023-03-10T19:38:13.552Z,100445.16
2023-03-10T19:40:40.146Z,100468.44
2023-03-10T19:43:06.755Z,100465.81
2023-03-10T19:45:33.388Z,100476.16
2023-03-10T19:48:00.193Z,100487.31
2023-03-10T19:50:27.240Z,100493.38
2023-03-10T19:52:53.748Z,100492.38
2023-03-10T19:55:23.217Z,100494.59
2023-03-10T19:57:51.545Z,100510.19
2023-03-10T20:00:27.732Z,100505.75
2023-03-10T20:02:54.978Z,100503.09
2023-03-10T20:05:22.809Z,100504.69
2023-03-10T20:07:49.432Z,100527.41
2023-03-10T20:10:17.911Z,100532.69
2023-03-10T20:12:46.934Z,100530.25
2023-03-10T20:15:13.583Z,100536.31
2023-03-10T20:17:40.006Z,100550.53
2023-03-10T20:20:10.752Z,100541.81
2023-03-10T20:22:43.131Z,100551.56
2023-03-10T20:25:11.881Z,100555.00
2023-03-10T20:27:38.555Z,100548.09
2023-03-10T20:30:10.823Z,100557.63
2023-03-10T20:32:37.383Z,100567.94
2023-03-10T20:35:04.478Z,100567.16
2023-03-10T20:37:31.237Z,100581.13
2023-03-10T20:39:57.715Z,100584.59
2023-03-10T20:42:24.153Z,100584.59
2023-03-10T20:44:50.655Z,100581.94
2023-03-10T20:47:17.098Z,100595.94
2023-03-10T20:49:45.591Z,100598.38
2023-03-10T20:52:12.718Z,100609.09
2023-03-10T20:54:39.168Z,100612.75
2023-03-10T20:57:05.854Z,100613.59
2023-03-10T20:59:32.292Z,100617.00
2023-03-10T21:01:58.726Z,100631.81
2023-03-10T21:04:27.836Z,100630.00
2023-03-10T21:06:54.489Z,100643.97
2023-03-10T21:09:21.050Z,100647.63
2023-03-10T21:11:47.864Z,100643.59
2023-03-10T21:14:16.646Z,100640.94
2023-03-10T21:16:43.297Z,100647.00
2023-03-10T21:19:10.310Z,100663.88
2023-03-10T21:21:36.763Z,100676.22
2023-03-10T21:24:04.854Z,100677.84
2023-03-10T21:26:31.595Z,100669.94
2023-03-10T21:29:00.048Z,100674.19
2023-03-10T21:31:26.863Z,100686.38
2023-03-10T21:33:53.457Z,100700.94
2023-03-10T21:36:23.127Z,100695.06
2023-03-10T21:38:51.034Z,100702.78
2023-03-10T21:41:19.879Z,100694.88
2023-03-10T21:43:46.346Z,100700.16
2023-03-10T21:46:13.080Z,100698.53
2023-03-10T21:48:39.807Z,100709.88
2023-03-10T21:51:09.646Z,100718.78
2023-03-10T21:53:36.185Z,100728.53
2023-03-10T21:56:02.810Z,100739.88
2023-03-10T21:58:29.345Z,100739.88
2023-03-10T22:00:56.324Z,100750.63
2023-03-10T22:03:23.492Z,100756.91
2023-03-10T22:05:50.499Z,100762.97
2023-03-10T22:08:17.152Z,100765.81
2023-03-10T22:10:43.694Z,100771.09
2023-03-10T22:13:10.094Z,100775.13
2023-03-10T22:15:36.712Z,100775.56
2023-03-10T22:18:03.771Z,100784.84
2023-03-10T22:20:30.281Z,100777.16
2023-03-10T22:22:58.862Z,100786.88
2023-03-10T22:25:25.889Z,100786.88
2023-03-10T22:27:54.765Z,100788.50
2023-03-10T22:30:23.309Z,100790.34
2023-03-10T22:32:50.018Z,100785.88
2023-03-10T22:35:17.920Z,100796.19
2023-03-10T22:37:44.486Z,100796.19
2023-03-10T22:40:17.500Z,100796.41
2023-03-10T22:42:45.080Z,100784.03
2023-03-10T22:45:25.815Z,100794.56
2023-03-10T22:47:54.559Z,100794.16
2023-03-10T22:50:27.131Z,100796.19
2023-03-10T22:52:53.882Z,100800.25
2023-03-10T22:55:23.785Z,100804.28
2023-03-10T22:57:50.988Z,100811.75
2023-03-10T23:00:21.026Z,100816.63
2023-03-10T23:02:48.856Z,100812.75
2023-03-10T23:05:16.035Z,100821.03
2023-03-10T23:07:43.826Z,100821.63
2023-03-10T23:10:16.917Z,100820.00
2023-03-10T23:12:44.364Z,100827.09
2023-03-10T23:15:24.094Z,100828.91
2023-03-10T23:17:52.020Z,100835.19
2023-03-10T23:20:19.055Z,100838.63
2023-03-10T23:22:46.673Z,100843.69
2023-03-10T23:25:19.911Z,100840.25
2023-03-10T23:27:46.369Z,100843.50
2023-03-10T23:30:17.333Z,100851.00
2023-03-10T23:32:45.869Z,100855.28
2023-03-10T23:35:16.888Z,100853.25
2023-03-10T23:37:43.353Z,100853.88
2023-03-10T23:40:13.583Z,100860.78
2023-03-10T23:42:41.385Z,100851.88
2023-03-10T23:45:11.423Z,100868.69
2023-03-10T23:47:38.903Z,100873.31
2023-03-10T23:50:07.271Z,100865.59
2023-03-10T23:52:34.091Z,100871.91
2023-03-10T23:55:00.600Z,100880.19
2023-03-10T23:57:27.142Z,100877.94
2023-03-10T23:59:53.616Z,100885.84
